Time;durP1;ratioP1;P1;durP2;ratioP2;P2;SDS_P1;SDS_P2;PMS_P1;PMS_P2;Temp;Humidity;BMP_temperature;BMP_pressure;BME280_temperature;BME280_humidity;BME280_pressure;Samples;Min_cycle;Max_cycle;Signal;HPM_P1;HPM_P2
2021/05/21 00:01:19;;;;;;;2.55;1.17;;;;;;;19.52;36.53;100480.78;4143243;28;20088;-43
2021/05/21 00:03:20;;;;;;;4.75;1.40;;;;;;;19.47;36.56;100468.94;4144331;28;20034;-42
2021/05/21 00:05:21;;;;;;;2.13;1.17;;;;;;;19.41;36.69;100468.13;4141069;28;20033;-42
2021/05/21 00:07:21;;;;;;;4.70;1.58;;;;;;;19.42;36.75;100478.94;4147984;28;20034;-43
2021/05/21 00:09:21;;;;;;;2.67;1.40;;;;;;;19.47;36.37;100466.16;4142130;28;20038;-42
2021/05/21 00:11:22;;;;;;;2.55;1.10;;;;;;;19.39;36.56;100462.88;4139072;28;20494;-43
2021/05/21 00:13:22;;;;;;;3.10;1.50;;;;;;;19.47;36.54;100458.66;4138515;28;20036;-41
2021/05/21 00:15:23;;;;;;;4.60;1.42;;;;;;;19.33;36.79;100450.16;4140537;28;20037;-42
2021/05/21 00:17:23;;;;;;;4.25;1.25;;;;;;;19.33;36.73;100449.34;4145531;28;20057;-42
2021/05/21 00:19:23;;;;;;;3.00;1.20;;;;;;;19.42;36.71;100451.19;4141735;28;20045;-43
2021/05/21 00:21:24;;;;;;;4.85;1.50;;;;;;;19.31;36.87;100449.66;4149976;28;20511;-42
2021/05/21 00:23:24;;;;;;;3.13;1.50;;;;;;;19.28;36.95;100443.84;4138527;28;20112;-45
2021/05/21 00:25:25;;;;;;;3.80;1.40;;;;;;;19.22;36.99;100430.00;4139432;28;20135;-42
2021/05/21 00:27:25;;;;;;;3.20;1.35;;;;;;;19.18;36.93;100430.88;4134257;28;20054;-43
2021/05/21 00:29:26;;;;;;;5.05;1.73;;;;;;;19.29;36.62;100415.78;4137267;28;20073;-44
2021/05/21 00:31:26;;;;;;;2.75;1.50;;;;;;;19.06;36.92;100406.25;4145409;28;20060;-42
2021/05/21 00:33:27;;;;;;;5.68;1.67;;;;;;;19.23;36.64;100423.34;4143533;28;20045;-42
2021/05/21 00:35:27;;;;;;;3.83;1.90;;;;;;;19.18;36.94;100428.13;4139944;28;20042;-45
2021/05/21 00:37:27;;;;;;;3.70;1.42;;;;;;;19.21;36.85;100420.03;4139201;28;20048;-42
2021/05/21 00:39:28;;;;;;;5.60;1.80;;;;;;;19.14;36.86;100427.88;4143513;28;20038;-42
2021/05/21 00:41:28;;;;;;;4.88;1.80;;;;;;;19.18;36.74;100423.38;4140950;28;20031;-42
2021/05/21 00:43:29;;;;;;;4.30;1.58;;;;;;;19.13;36.75;100420.66;4139482;28;20371;-42
2021/05/21 00:45:29;;;;;;;4.60;1.63;;;;;;;19.12;36.74;100418.19;4139085;28;20412;-42
2021/05/21 00:47:30;;;;;;;6.88;2.30;;;;;;;18.94;37.03;100411.34;4144637;28;20768;-41
2021/05/21 00:49:30;;;;;;;4.78;2.15;;;;;;;18.95;37.13;100410.25;4140565;28;21037;-42
2021/05/21 00:51:32;;;;;;;5.28;1.77;;;;;;;19.10;36.85;100401.00;4145422;28;20045;-42
2021/05/21 00:53:33;;;;;;;5.68;2.30;;;;;;;19.11;36.61;100406.28;4137999;28;20094;-42
2021/05/21 00:55:33;;;;;;;5.43;2.05;;;;;;;19.07;36.66;100389.31;4153453;28;20041;-42
2021/05/21 00:57:35;;;;;;;3.97;1.73;;;;;;;18.98;36.83;100384.72;4138602;28;20499;-43
2021/05/21 00:59:35;;;;;;;3.40;1.55;;;;;;;19.00;36.81;100386.09;4148720;28;20114;-42
2021/05/21 01:01:37;;;;;;;5.60;1.85;;;;;;;19.03;36.79;100391.06;4142508;28;20046;-43
2021/05/21 01:03:39;;;;;;;5.65;2.55;;;;;;;19.02;36.81;100385.78;4135885;28;20619;-43
2021/05/21 01:05:39;;;;;;;7.35;2.33;;;;;;;19.03;36.62;100376.34;4132261;28;20108;-42
2021/05/21 01:07:40;;;;;;;7.18;2.45;;;;;;;18.90;36.97;100369.53;4142122;28;20545;-43
2021/05/21 01:09:40;;;;;;;6.18;2.25;;;;;;;19.09;36.69;100369.66;4147687;28;20045;-41
2021/05/21 01:11:41;;;;;;;6.18;2.25;;;;;;;18.93;36.74;100348.72;4130177;28;20122;-41
2021/05/21 01:13:41;;;;;;;5.30;2.03;;;;;;;18.94;36.95;100358.66;4140408;28;20038;-42
2021/05/21 01:15:42;;;;;;;3.33;1.80;;;;;;;18.98;36.70;100349.47;4141826;28;20456;-41
2021/05/21 01:17:42;;;;;;;6.15;2.28;;;;;;;18.93;36.76;100338.44;4137506;28;20507;-41
2021/05/21 01:19:43;;;;;;;8.05;2.28;;;;;;;18.82;36.84;100347.97;4139450;28;20038;-41
2021/05/21 01:21:43;;;;;;;5.50;2.17;;;;;;;18.92;36.75;100347.03;4152017;28;20045;-41
2021/05/21 01:23:44;;;;;;;6.80;2.05;;;;;;;18.92;36.72;100336.78;4143503;28;20461;-43
2021/05/21 01:25:44;;;;;;;8.02;2.30;;;;;;;18.91;36.68;100328.75;4143368;28;20037;-43
2021/05/21 01:27:45;;;;;;;4.90;2.28;;;;;;;18.81;36.79;100319.41;4136983;28;20057;-42
2021/05/21 01:29:46;;;;;;;6.80;2.28;;;;;;;18.76;36.84;100332.50;4139879;28;20120;-42
2021/05/21 01:31:46;;;;;;;7.60;2.10;;;;;;;18.69;36.83;100314.25;4137541;28;20064;-44
2021/05/21 01:33:47;;;;;;;7.68;2.65;;;;;;;18.79;36.72;100316.09;4137311;28;20038;-43
2021/05/21 01:35:48;;;;;;;8.00;2.42;;;;;;;18.79;36.78;100309.75;4136817;28;20654;-43
2021/05/21 01:37:50;;;;;;;4.57;2.00;;;;;;;18.78;36.84;100297.81;4139967;28;20037;-44
2021/05/21 01:39:51;;;;;;;7.53;2.70;;;;;;;18.86;36.60;100299.13;4140777;28;20029;-44
2021/05/21 01:41:52;;;;;;;7.60;2.58;;;;;;;18.75;36.97;100295.63;4140873;28;20030;-46
2021/05/21 01:43:56;;;;;;;9.13;2.58;;;;;;;18.76;36.82;100299.25;4137795;28;20053;-44
2021/05/21 01:45:57;;;;;;;7.90;3.05;;;;;;;18.71;36.79;100291.78;4131104;28;20031;-44
2021/05/21 01:47:58;;;;;;;7.78;2.60;;;;;;;18.71;36.74;100289.03;4141340;28;20122;-43
2021/05/21 01:49:59;;;;;;;6.25;2.60;;;;;;;18.71;37.02;100289.84;4144872;28;20093;-43
2021/05/21 01:52:00;;;;;;;8.75;2.30;;;;;;;18.62;36.91;100288.00;4137669;28;20469;-43
2021/05/21 01:54:12;;;;;;;7.53;2.40;;;;;;;18.63;36.85;100289.63;4142102;28;20033;-43
2021/05/21 01:56:12;;;;;;;5.22;2.40;;;;;;;18.56;36.76;100264.22;4139763;28;20640;-43
2021/05/21 01:58:12;;;;;;;8.45;2.55;;;;;;;18.57;36.93;100282.47;4140261;28;20038;-42
2021/05/21 02:00:13;;;;;;;7.03;2.53;;;;;;;18.63;36.71;100279.38;4149853;28;20120;-42
2021/05/21 02:02:14;;;;;;;10.13;2.85;;;;;;;18.61;36.55;100273.28;4147242;28;20038;-42
2021/05/21 02:04:15;;;;;;;7.70;2.60;;;;;;;18.61;36.69;100280.78;4138828;28;20038;-44
2021/05/21 02:06:16;;;;;;;8.23;3.05;;;;;;;18.58;36.86;100267.50;4143394;28;20076;-44
2021/05/21 02:08:16;;;;;;;8.32;3.10;;;;;;;18.60;36.60;100268.03;4144673;28;20037;-43
2021/05/21 02:10:16;;;;;;;12.45;2.88;;;;;;;18.64;36.79;100258.03;4142529;28;20510;-44
2021/05/21 02:12:17;;;;;;;6.85;2.45;;;;;;;18.58;36.75;100259.19;4141253;28;20048;-46
2021/05/21 02:14:17;;;;;;;7.05;2.55;;;;;;;18.50;36.81;100260.66;4150225;28;20029;-42
2021/05/21 02:16:18;;;;;;;8.13;2.72;;;;;;;18.50;36.79;100253.16;4138834;28;20030;-43
2021/05/21 02:18:18;;;;;;;8.43;2.55;;;;;;;18.61;36.60;100251.13;4134346;28;20508;-42
2021/05/21 02:20:19;;;;;;;9.43;3.20;;;;;;;18.50;36.76;100258.69;4144006;28;20037;-42
2021/05/21 02:22:21;;;;;;;8.15;2.70;;;;;;;18.52;36.75;100250.94;4149341;28;20034;-43
2021/05/21 02:24:21;;;;;;;10.15;3.13;;;;;;;18.48;36.74;100249.84;4141741;28;20033;-44
2021/05/21 02:26:21;;;;;;;7.57;2.65;;;;;;;18.53;36.76;100251.75;4148070;28;20040;-43
2021/05/21 02:28:22;;;;;;;10.00;3.05;;;;;;;18.52;36.79;100259.25;4143550;28;20053;-43
2021/05/21 02:30:23;;;;;;;8.00;3.00;;;;;;;18.57;36.55;100254.75;4142633;28;20037;-43
2021/05/21 02:32:24;;;;;;;8.63;3.10;;;;;;;18.55;36.50;100249.50;4138837;28;20045;-41
2021/05/21 02:34:24;;;;;;;9.88;2.88;;;;;;;18.53;36.65;100254.53;4141327;28;20044;-41
2021/05/21 02:36:25;;;;;;;10.60;3.00;;;;;;;18.45;36.79;100233.81;4139758;28;20030;-42
2021/05/21 02:38:25;;;;;;;7.47;2.97;;;;;;;18.41;36.82;100248.53;4144023;28;20038;-41
2021/05/21 02:40:26;;;;;;;9.27;2.97;;;;;;;18.40;36.87;100235.78;4141716;28;20096;-41
2021/05/21 02:42:26;;;;;;;9.15;3.05;;;;;;;18.42;36.77;100233.56;4145871;28;20037;-41
2021/05/21 02:44:26;;;;;;;8.00;2.97;;;;;;;18.42;36.62;100237.16;4146276;28;20038;-41
2021/05/21 02:46:27;;;;;;;11.40;3.38;;;;;;;18.29;37.01;100230.31;4144892;28;20577;-41
2021/05/21 02:48:27;;;;;;;8.32;2.63;;;;;;;18.40;36.79;100230.25;4144768;28;20069;-43
2021/05/21 02:50:28;;;;;;;9.23;3.17;;;;;;;18.38;36.70;100233.31;4145239;28;20128;-43
2021/05/21 02:52:28;;;;;;;8.82;3.17;;;;;;;18.31;37.00;100222.56;4150046;28;20061;-41
2021/05/21 02:54:28;;;;;;;7.93;2.83;;;;;;;18.50;36.45;100225.44;4141365;28;20053;-42
2021/05/21 02:56:29;;;;;;;9.75;3.53;;;;;;;18.47;36.45;100220.47;4146669;28;20692;-42
2021/05/21 02:58:29;;;;;;;7.63;2.75;;;;;;;18.29;36.70;100213.72;4158937;28;20048;-44
2021/05/21 03:00:30;;;;;;;8.65;3.00;;;;;;;;;;4140608;28;20061;-47
2021/05/21 03:02:30;;;;;;;8.57;3.20;;;;;;;18.12;37.07;100208.59;4144830;28;20037;-42
2021/05/21 03:04:31;;;;;;;8.73;3.00;;;;;;;18.24;36.96;100210.97;4146502;28;20048;-42
2021/05/21 03:06:31;;;;;;;11.15;3.28;;;;;;;18.29;36.70;100210.09;4143090;28;20503;-42
2021/05/21 03:08:31;;;;;;;8.45;2.80;;;;;;;18.31;36.67;100210.69;4145576;28;20041;-42
2021/05/21 03:10:32;;;;;;;11.60;3.22;;;;;;;18.25;36.81;100200.72;4145032;28;20487;-42
2021/05/21 03:12:34;;;;;;;7.65;3.28;;;;;;;;;;4144800;28;20064;-42
2021/05/21 03:14:34;;;;;;;10.63;3.17;;;;;;;18.35;36.40;100184.88;4152317;28;20678;-41
2021/05/21 03:16:35;;;;;;;8.98;2.72;;;;;;;18.38;35.72;100202.00;4143494;28;20034;-41
2021/05/21 03:18:35;;;;;;;19.08;3.30;;;;;;;18.28;36.42;100189.06;4146208;28;20037;-41
2021/05/21 03:20:36;;;;;;;9.95;3.30;;;;;;;18.37;36.46;100195.66;4138160;28;20042;-44
2021/05/21 03:22:36;;;;;;;12.23;3.67;;;;;;;18.38;35.90;100196.47;4143267;28;20034;-41
2021/05/21 03:24:37;;;;;;;10.57;3.08;;;;;;;18.25;36.44;100190.47;4144944;28;20040;-42
2021/05/21 03:26:37;;;;;;;10.18;3.03;;;;;;;18.18;36.53;100184.41;4148104;28;20060;-43
2021/05/21 03:28:40;;;;;;;12.38;3.85;;;;;;;18.30;35.97;100182.13;4144432;28;20394;-42
2021/05/21 03:30:41;;;;;;;10.98;2.85;;;;;;;18.22;36.36;100173.59;4150276;28;20152;-42
2021/05/21 03:32:41;;;;;;;8.95;3.22;;;;;;;18.25;36.36;100176.59;4144609;28;20068;-42
2021/05/21 03:34:42;;;;;;;9.82;3.22;;;;;;;18.17;36.47;100157.84;4143966;28;20042;-41
2021/05/21 03:36:42;;;;;;;13.45;3.10;;;;;;;18.22;36.23;100168.06;4154964;28;20057;-41
2021/05/21 03:38:42;;;;;;;7.07;2.47;;;;;;;18.29;36.33;100147.22;4144894;28;20109;-42
2021/05/21 03:40:43;;;;;;;8.55;3.05;;;;;;;18.12;36.71;100155.97;4142709;28;20041;-41
2021/05/21 03:42:44;;;;;;;9.13;3.25;;;;;;;18.15;35.91;100157.31;4145903;28;20033;-41
2021/05/21 03:44:44;;;;;;;8.13;3.05;;;;;;;18.18;36.18;100152.03;4145634;28;20145;-41
2021/05/21 03:46:45;;;;;;;8.23;3.20;;;;;;;18.18;36.27;100145.66;4156380;28;20034;-41
2021/05/21 03:48:46;;;;;;;11.65;3.40;;;;;;;18.16;36.03;100145.94;4145361;28;20118;-42
2021/05/21 03:50:47;;;;;;;9.98;3.28;;;;;;;18.16;36.16;100143.16;4145290;28;20041;-41
2021/05/21 03:52:49;;;;;;;9.30;3.47;;;;;;;18.22;35.60;100154.22;4142013;28;20030;-40
2021/05/21 03:54:49;;;;;;;9.60;3.42;;;;;;;18.21;35.64;100147.81;4144355;28;20501;-40
2021/05/21 03:56:51;;;;;;;11.00;3.67;;;;;;;18.21;36.04;100152.56;4144506;28;20069;-41
2021/05/21 03:58:51;;;;;;;11.73;3.40;;;;;;;18.12;35.62;100147.66;4143456;28;20037;-41
2021/05/21 04:00:54;;;;;;;10.90;3.42;;;;;;;18.22;35.91;100145.91;4136433;28;20081;-42
2021/05/21 04:02:54;;;;;;;13.30;3.67;;;;;;;18.15;36.14;100144.31;4139191;28;20485;-41
2021/05/21 04:04:55;;;;;;;9.43;3.38;;;;;;;18.06;36.02;100129.44;4151630;28;20037;-42
2021/05/21 04:06:55;;;;;;;8.75;2.78;;;;;;;18.13;35.89;100137.38;4149082;28;20034;-42
2021/05/21 04:08:56;;;;;;;9.23;3.17;;;;;;;18.08;35.78;100112.53;4145616;28;20041;-41
2021/05/21 04:10:56;;;;;;;9.07;3.22;;;;;;;18.17;35.90;100133.75;4142348;28;20038;-41
2021/05/21 04:12:57;;;;;;;7.28;2.88;;;;;;;18.07;36.02;100116.41;4139880;28;20035;-41
2021/05/21 04:14:57;;;;;;;10.98;3.80;;;;;;;18.05;36.00;100099.25;4135316;28;20038;-42
2021/05/21 04:16:57;;;;;;;7.88;2.45;;;;;;;18.08;35.51;100107.81;4142777;28;20496;-41
2021/05/21 04:18:58;;;;;;;9.85;3.53;;;;;;;18.08;35.71;100107.81;4147150;28;20040;-41
2021/05/21 04:20:59;;;;;;;7.97;3.00;;;;;;;18.10;35.64;100100.03;4144885;28;20037;-42
2021/05/21 04:23:04;;;;;;;10.30;3.47;;;;;;;17.99;35.58;100110.38;4143835;28;20037;-43
2021/05/21 04:25:04;;;;;;;7.85;2.92;;;;;;;17.97;35.91;100095.19;4143911;28;20409;-41
2021/05/21 04:27:06;;;;;;;8.32;2.88;;;;;;;18.00;35.94;100073.25;4144762;28;20038;-40
2021/05/21 04:29:06;;;;;;;9.63;3.08;;;;;;;18.06;35.40;100081.50;4142624;28;20034;-42
2021/05/21 04:31:08;;;;;;;10.30;3.10;;;;;;;17.90;36.01;100083.59;4142259;28;20468;-42
2021/05/21 04:33:08;;;;;;;9.07;2.92;;;;;;;18.03;35.67;100087.63;4140037;28;20374;-41
2021/05/21 04:35:09;;;;;;;11.60;3.60;;;;;;;17.95;36.13;100076.09;4145412;28;20084;-42
2021/05/21 04:37:09;;;;;;;7.65;2.90;;;;;;;18.03;35.60;100087.63;4143859;28;20034;-44
2021/05/21 04:39:10;;;;;;;10.25;2.63;;;;;;;18.00;35.50;100080.75;4140134;28;20034;-41
2021/05/21 04:41:10;;;;;;;8.18;3.25;;;;;;;17.91;35.92;100065.88;4139319;28;20036;-42
2021/05/21 04:43:11;;;;;;;7.25;3.15;;;;;;;17.87;35.66;100060.09;4144451;28;20125;-41
2021/05/21 04:45:12;;;;;;;11.52;3.22;;;;;;;17.92;35.42;100060.06;4145006;28;20362;-43
2021/05/21 04:47:12;;;;;;;10.32;3.05;;;;;;;17.89;35.78;100055.09;4140045;28;20106;-41
2021/05/21 04:49:31;;;;;;;9.55;3.17;;;;;;;17.94;35.51;100055.03;4132806;28;20587;-41
2021/05/21 04:51:32;;;;;;;10.43;3.33;;;;;;;17.88;35.66;100056.22;4142056;28;20034;-41
2021/05/21 04:53:32;;;;;;;8.57;3.03;;;;;;;17.90;35.63;100067.00;4153378;28;20439;-41
2021/05/21 04:55:33;;;;;;;9.27;3.25;;;;;;;17.89;36.05;100063.41;4142356;28;20591;-42
2021/05/21 04:57:33;;;;;;;11.48;3.65;;;;;;;17.91;35.73;100071.44;4141227;28;20053;-41
2021/05/21 04:59:34;;;;;;;12.10;3.55;;;;;;;17.86;36.06;100058.47;4143824;28;20135;-41
2021/05/21 05:01:34;;;;;;;8.32;2.97;;;;;;;17.76;35.77;100045.53;4143538;28;20033;-41
2021/05/21 05:03:34;;;;;;;11.27;2.80;;;;;;;17.90;35.83;100061.47;4141992;28;20045;-41
2021/05/21 05:05:35;;;;;;;9.27;3.63;;;;;;;17.84;35.96;100062.63;4142855;28;20360;-40
2021/05/21 05:07:36;;;;;;;10.82;2.97;;;;;;;17.73;36.34;100059.94;4147870;28;20041;-41
2021/05/21 05:09:36;;;;;;;10.68;3.03;;;;;;;17.92;35.72;100056.44;4134465;28;20030;-41
2021/05/21 05:11:40;;;;;;;8.20;3.13;;;;;;;17.86;36.02;100052.06;4141816;28;20092;-43
2021/05/21 05:13:40;;;;;;;8.48;3.08;;;;;;;17.79;35.90;100044.94;4145105;28;20032;-41
2021/05/21 05:15:42;;;;;;;8.15;3.13;;;;;;;17.76;35.89;100034.44;4144945;28;20033;-42
2021/05/21 05:17:43;;;;;;;10.20;3.13;;;;;;;17.76;35.85;100031.69;4141707;28;20460;-41
2021/05/21 05:19:43;;;;;;;10.07;3.17;;;;;;;17.73;36.30;100040.56;4135542;28;20041;-41
2021/05/21 05:21:45;;;;;;;11.80;3.15;;;;;;;17.77;35.89;100046.38;4144199;28;20030;-42
2021/05/21 05:23:46;;;;;;;9.48;2.72;;;;;;;17.76;36.05;100045.53;4141976;28;20029;-41
2021/05/21 05:25:48;;;;;;;11.25;3.47;;;;;;;17.84;35.58;100041.28;4143315;28;20052;-41
2021/05/21 05:27:50;;;;;;;8.05;2.80;;;;;;;17.80;35.93;100032.75;4134626;28;20500;-41
2021/05/21 05:29:51;;;;;;;8.93;2.90;;;;;;;17.75;35.96;100031.97;4140858;28;20038;-41
2021/05/21 05:31:52;;;;;;;8.82;3.17;;;;;;;17.75;36.28;100029.19;4144708;28;20100;-41
2021/05/21 05:33:53;;;;;;;8.55;3.08;;;;;;;17.77;35.97;100032.53;4140181;28;20384;-41
2021/05/21 05:35:53;;;;;;;7.35;3.00;;;;;;;17.80;36.00;100018.09;4139691;28;20044;-41
2021/05/21 05:37:53;;;;;;;8.00;2.60;;;;;;;17.75;36.25;100021.75;4139814;28;20048;-41
2021/05/21 05:39:54;;;;;;;8.20;2.70;;;;;;;17.78;36.01;100026.69;4143672;28;20033;-42
2021/05/21 05:41:54;;;;;;;9.40;2.97;;;;;;;17.74;36.05;100033.09;4150073;28;20484;-42
2021/05/21 05:43:55;;;;;;;7.50;2.80;;;;;;;17.86;35.49;100024.38;4141802;28;20084;-43
2021/05/21 05:45:55;;;;;;;5.72;2.00;;;;;;;17.76;35.87;100004.00;4146017;28;20036;-45
2021/05/21 05:47:56;;;;;;;9.85;3.08;;;;;;;17.82;35.64;100022.22;4142350;28;20249;-45
2021/05/21 05:49:56;;;;;;;7.85;2.83;;;;;;;17.71;35.70;100015.13;4143406;28;20037;-43
2021/05/21 05:51:57;;;;;;;6.10;2.50;;;;;;;17.71;36.10;100020.66;4145436;28;20470;-43
2021/05/21 05:53:57;;;;;;;7.10;2.88;;;;;;;17.73;35.77;100020.38;4146003;28;20033;-45
2021/05/21 05:55:58;;;;;;;8.05;2.28;;;;;;;17.72;35.92;100014.03;4148541;28;20046;-42
2021/05/21 05:57:58;;;;;;;7.68;2.95;;;;;;;17.72;36.27;100007.66;4140101;28;20042;-43
2021/05/21 05:59:59;;;;;;;8.35;2.63;;;;;;;17.68;36.06;100010.19;4143051;28;20089;-42
2021/05/21 06:01:59;;;;;;;6.60;2.47;;;;;;;17.65;36.24;99999.69;4137638;28;20031;-45
2021/05/21 06:04:00;;;;;;;6.53;2.28;;;;;;;17.71;35.80;100015.13;4141979;28;20060;-45
2021/05/21 06:06:00;;;;;;;9.32;3.05;;;;;;;17.69;36.41;100006.31;4142468;28;20033;-42
2021/05/21 06:08:05;;;;;;;7.93;3.00;;;;;;;17.68;36.03;99993.56;4141649;28;20033;-43
2021/05/21 06:10:06;;;;;;;7.40;2.78;;;;;;;17.68;36.11;99995.53;4137008;28;20031;-42
2021/05/21 06:12:07;;;;;;;6.40;2.42;;;;;;;17.71;36.28;100001.28;4142087;28;20133;-42
2021/05/21 06:14:07;;;;;;;10.35;3.17;;;;;;;17.73;36.16;99996.28;4143829;28;20042;-42
2021/05/21 06:16:08;;;;;;;7.72;3.33;;;;;;;17.64;36.08;99989.72;4136339;28;20030;-42
2021/05/21 06:18:08;;;;;;;6.43;2.60;;;;;;;17.70;35.96;99988.56;4140148;28;20038;-42
2021/05/21 06:20:10;;;;;;;9.77;2.92;;;;;;;17.72;36.20;99989.13;4143399;28;20034;-44
2021/05/21 06:22:11;;;;;;;8.60;2.83;;;;;;;17.68;35.66;99998.28;4141744;28;20045;-46
2021/05/21 06:24:12;;;;;;;9.82;3.20;;;;;;;17.63;36.10;99979.78;4144507;28;20030;-45
2021/05/21 06:28:25;;;;;;;9.88;3.17;;;;;;;17.70;36.02;99985.78;4143184;28;20065;-46
2021/05/21 06:30:26;;;;;;;6.35;2.40;;;;;;;17.57;36.02;99967.13;4146177;28;20036;-43
2021/05/21 06:32:26;;;;;;;8.95;2.65;;;;;;;17.71;36.29;99987.44;4144405;28;20057;-43
2021/05/21 06:34:27;;;;;;;8.70;2.97;;;;;;;17.75;35.62;99979.38;4145098;28;20029;-42
2021/05/21 06:36:27;;;;;;;8.65;2.70;;;;;;;17.71;36.14;99998.53;4145225;28;20411;-42
2021/05/21 06:38:27;;;;;;;9.93;3.00;;;;;;;17.74;35.79;99992.41;4144918;28;20034;-43
2021/05/21 06:40:28;;;;;;;9.98;3.10;;;;;;;17.60;35.95;99996.97;4137913;28;20029;-43
2021/05/21 06:42:28;;;;;;;9.80;3.10;;;;;;;17.56;35.94;99984.84;4143739;28;20034;-43
2021/05/21 06:44:29;;;;;;;8.82;3.00;;;;;;;17.63;35.80;99997.22;4142123;28;20080;-43
2021/05/21 06:46:29;;;;;;;9.32;2.90;;;;;;;17.66;35.85;99976.44;4139246;28;20038;-45
2021/05/21 06:48:32;;;;;;;8.70;2.65;;;;;;;17.63;36.11;99979.78;4145256;28;20040;-42
2021/05/21 06:50:33;;;;;;;8.13;3.33;;;;;;;17.63;35.92;99979.78;4142877;28;20131;-43
2021/05/21 06:52:34;;;;;;;7.03;2.80;;;;;;;17.60;35.89;99989.50;4139499;28;20512;-43
2021/05/21 06:54:36;;;;;;;9.80;2.85;;;;;;;17.52;36.38;99972.69;4142537;28;20052;-43
2021/05/21 06:56:39;;;;;;;9.43;2.97;;;;;;;17.71;35.58;99970.84;4139367;28;20130;-43
2021/05/21 06:58:39;;;;;;;7.55;3.38;;;;;;;17.70;35.71;99973.91;4140282;28;20275;-42
2021/05/21 07:00:42;;;;;;;8.30;3.05;;;;;;;17.64;36.01;99973.97;4146273;28;20033;-43
2021/05/21 07:02:42;;;;;;;9.38;3.20;;;;;;;17.66;35.86;99965.38;4145675;28;20108;-44
2021/05/21 07:04:43;;;;;;;7.95;3.10;;;;;;;17.60;35.98;99977.63;4139044;28;20485;-43
2021/05/21 07:06:43;;;;;;;9.05;3.35;;;;;;;17.62;36.31;99969.84;4133384;28;20030;-42
2021/05/21 07:08:44;;;;;;;9.88;3.30;;;;;;;17.58;35.96;99977.06;4141605;28;20497;-43
2021/05/21 07:10:44;;;;;;;9.88;2.75;;;;;;;17.60;35.96;99981.19;4135775;28;20436;-44
2021/05/21 07:12:45;;;;;;;9.35;3.00;;;;;;;17.63;36.13;99968.72;4140822;28;20053;-43
2021/05/21 07:14:45;;;;;;;9.95;2.58;;;;;;;17.54;35.78;99964.94;4143954;28;20030;-42
2021/05/21 07:16:46;;;;;;;9.10;2.97;;;;;;;17.52;35.97;99969.91;4144755;28;20389;-44
2021/05/21 07:18:47;;;;;;;7.47;3.03;;;;;;;17.53;36.21;99975.16;4142000;28;20033;-46
2021/05/21 07:20:47;;;;;;;5.90;2.35;;;;;;;17.51;36.26;99974.63;4140944;28;20030;-46
2021/05/21 07:22:48;;;;;;;7.45;2.88;;;;;;;17.57;36.11;99975.44;4140725;28;20026;-43
2021/05/21 07:24:49;;;;;;;8.52;3.47;;;;;;;17.66;36.20;99972.84;4143841;28;20076;-43
2021/05/21 07:26:49;;;;;;;9.27;3.13;;;;;;;17.59;35.99;99964.88;4132202;28;20034;-43
2021/05/21 07:28:50;;;;;;;6.50;2.83;;;;;;;17.59;35.95;99981.50;4151937;28;20506;-42
2021/05/21 07:30:51;;;;;;;7.05;2.67;;;;;;;17.59;36.32;99984.25;4148941;28;20503;-42
2021/05/21 07:32:52;;;;;;;10.88;3.42;;;;;;;17.60;35.96;99974.84;4139761;28;20519;-45
2021/05/21 07:34:52;;;;;;;9.93;3.33;;;;;;;17.46;36.55;99958.06;4138506;28;20034;-44
2021/05/21 07:36:53;;;;;;;7.90;3.17;;;;;;;17.67;36.02;99964.22;4133218;28;20670;-43
2021/05/21 07:38:54;;;;;;;9.05;3.30;;;;;;;17.72;36.24;99978.03;4139275;28;20107;-42
2021/05/21 07:40:55;;;;;;;9.98;3.22;;;;;;;17.80;36.20;99974.63;4140009;28;20033;-43
2021/05/21 07:42:56;;;;;;;8.77;2.85;;;;;;;17.75;35.73;99983.00;4139888;28;20026;-43
2021/05/21 07:44:56;;;;;;;8.52;3.50;;;;;;;17.79;35.92;99970.19;4138769;28;20511;-43
2021/05/21 07:46:57;;;;;;;10.43;3.65;;;;;;;17.80;36.32;99963.56;4134445;28;20045;-43
2021/05/21 07:48:57;;;;;;;9.23;3.17;;;;;;;17.79;36.03;99966.63;4139313;28;20408;-46
2021/05/21 07:50:57;;;;;;;12.43;3.80;;;;;;;17.76;37.61;99973.56;4133786;28;20150;-43
2021/05/21 07:52:58;;;;;;;12.90;4.13;;;;;;;17.90;38.10;99972.88;4136451;28;20033;-43
2021/05/21 07:55:00;;;;;;;17.30;4.55;;;;;;;17.85;39.62;99970.16;4134632;28;20034;-42
2021/05/21 07:57:00;;;;;;;18.92;5.00;;;;;;;17.81;39.23;99978.22;4131527;28;20041;-44
2021/05/21 07:59:00;;;;;;;22.63;3.90;;;;;;;17.82;41.36;99983.44;4135868;28;20463;-45
2021/05/21 08:01:01;;;;;;;23.42;4.53;;;;;;;17.86;42.62;99971.78;4139077;28;20045;-44
2021/05/21 08:03:02;;;;;;;19.92;4.82;;;;;;;17.96;41.75;99966.16;4133372;28;20501;-44
2021/05/21 08:05:04;;;;;;;22.75;4.63;;;;;;;17.95;43.24;99975.56;4134582;28;20092;-42
2021/05/21 08:07:05;;;;;;;24.45;5.47;;;;;;;17.96;43.53;99964.19;4134193;28;20503;-43
2021/05/21 08:09:05;;;;;;;20.52;4.93;;;;;;;18.00;42.48;99967.22;4135995;28;20034;-42
2021/05/21 08:11:06;;;;;;;24.63;5.90;;;;;;;18.00;43.82;99968.03;4135065;28;20189;-43
2021/05/21 08:13:06;;;;;;;17.50;5.30;;;;;;;18.05;42.43;99972.69;4131178;28;20026;-43
2021/05/21 08:15:07;;;;;;;22.60;5.97;;;;;;;18.01;42.65;99974.38;4135680;28;20097;-45
2021/05/21 08:17:09;;;;;;;18.95;5.47;;;;;;;18.09;42.34;99962.69;4136707;28;20400;-45
2021/05/21 08:19:10;;;;;;;19.85;5.05;;;;;;;18.04;41.64;99964.69;4137586;28;20724;-44
2021/05/21 08:21:10;;;;;;;15.70;4.30;;;;;;;18.09;40.73;99976.53;4134433;28;20061;-45
2021/05/21 08:23:13;;;;;;;14.73;4.25;;;;;;;18.10;41.40;99949.66;4140497;28;20018;-42
2021/05/21 08:25:14;;;;;;;15.13;4.22;;;;;;;18.09;41.83;99943.31;4141921;28;20038;-43
2021/05/21 08:27:14;;;;;;;19.00;4.85;;;;;;;18.11;41.25;99957.66;4137142;28;20357;-42
2021/05/21 08:29:15;;;;;;;12.98;4.00;;;;;;;18.16;41.18;99962.31;4144718;28;20038;-43
2021/05/21 08:31:15;;;;;;;18.10;4.78;;;;;;;18.09;41.57;99959.06;4140345;28;20030;-45
2021/05/21 08:33:16;;;;;;;20.40;4.68;;;;;;;18.04;41.51;99962.72;4132759;28;20083;-49
2021/05/21 08:35:18;;;;;;;17.48;4.10;;;;;;;18.10;41.02;99953.25;4134004;28;20112;-46
2021/05/21 08:37:18;;;;;;;14.07;4.00;;;;;;;18.14;40.65;99959.03;4134654;28;20034;-42
2021/05/21 08:39:20;;;;;;;16.48;4.45;;;;;;;18.20;39.76;99968.06;4132905;28;20079;-46
2021/05/21 08:41:26;;;;;;;15.20;4.07;;;;;;;18.21;39.98;99975.28;4135933;28;20034;-42
2021/05/21 08:43:30;;;;;;;14.10;4.22;;;;;;;18.16;41.20;99962.31;4134225;28;20449;-42
2021/05/21 08:45:30;;;;;;;8.65;3.03;;;;;;;18.25;40.50;99952.22;4139250;28;20037;-43
2021/05/21 08:47:35;;;;;;;14.60;4.50;;;;;;;18.27;40.20;99954.69;4133683;28;20041;-45
2021/05/21 08:49:36;;;;;;;17.63;4.32;;;;;;;18.24;40.89;99960.84;4138205;28;20395;-46
2021/05/21 08:51:36;;;;;;;13.13;3.75;;;;;;;18.30;41.02;99940.25;4140619;28;20038;-46
2021/05/21 08:53:38;;;;;;;17.63;4.53;;;;;;;18.32;40.67;99952.72;4135975;28;20422;-43
2021/05/21 08:55:39;;;;;;;13.23;4.47;;;;;;;18.22;41.07;99949.25;4142026;28;20034;-48
2021/05/21 08:57:40;;;;;;;13.35;4.18;;;;;;;18.32;41.50;99951.88;4136126;28;20127;-44
2021/05/21 08:59:41;;;;;;;15.00;4.15;;;;;;;18.34;41.50;99955.22;4135925;28;20053;-45
2021/05/21 09:01:56;;;;;;;18.85;3.75;;;;;;;18.46;40.70;99927.88;4140209;28;20034;-44
2021/05/21 09:04:02;;;;;;;10.27;4.00;;;;;;;18.47;41.01;99951.69;4130318;28;20045;-45
2021/05/21 09:08:33;;;;;;;11.85;3.63;;;;;;;18.40;40.78;99958.72;4134418;28;20045;-45
2021/05/21 09:10:35;;;;;;;10.77;3.22;;;;;;;18.49;40.16;99963.31;4134520;28;20034;-44
2021/05/21 09:12:45;;;;;;;13.35;3.65;;;;;;;18.45;40.62;99966.97;4139055;28;20103;-46
2021/05/21 09:15:11;;;;;;;12.18;3.67;;;;;;;18.49;40.27;99968.00;4138795;28;20047;-45
2021/05/21 09:17:23;;;;;;;10.27;3.28;;;;;;;18.59;40.50;99975.38;4137225;28;20088;-48
2021/05/21 09:19:25;;;;;;;11.45;3.30;;;;;;;18.59;40.31;99969.84;4136951;28;20038;-42
2021/05/21 09:21:44;;;;;;;9.13;3.15;;;;;;;18.63;41.19;99968.94;4137729;28;20034;-48
2021/05/21 09:24:01;;;;;;;17.98;3.40;;;;;;;18.63;40.27;99977.25;4132424;28;20110;-48
2021/05/21 09:26:02;;;;;;;9.48;2.90;;;;;;;18.65;40.22;99949.25;4140808;28;20404;-48
2021/05/21 09:28:03;;;;;;;9.15;3.05;;;;;;;18.65;40.80;99961.16;4135478;28;20065;-45
2021/05/21 09:30:06;;;;;;;8.15;3.20;;;;;;;18.70;40.66;99955.50;4129436;28;20133;-46